Time;durP1;ratioP1;P1;durP2;ratioP2;P2;SDS_P1;SDS_P2;PMS_P1;PMS_P2;Temp;Humidity;BMP_temperature;BMP_pressure;BME280_temperature;BME280_humidity;BME280_pressure;Samples;Min_cycle;Max_cycle;Signal;HPM_P1;HPM_P2
2022/04/28 00:02:24;;;;;;;6.15;5.57;;;19.10;45.80;;;;;;4997381;28;20300;-69
2022/04/28 00:04:52;;;;;;;6.00;5.40;;;19.10;45.70;;;;;;5012171;28;20309;-69
2022/04/28 00:07:19;;;;;;;6.80;5.70;;;19.10;45.80;;;;;;4996956;28;20579;-69
2022/04/28 00:09:46;;;;;;;6.60;5.80;;;19.00;45.70;;;;;;5012066;28;20205;-69
2022/04/28 00:12:13;;;;;;;6.55;5.95;;;19.10;46.00;;;;;;5012345;28;20193;-69
2022/04/28 00:14:43;;;;;;;6.32;5.72;;;19.00;45.90;;;;;;5012033;28;20201;-69
2022/04/28 00:17:10;;;;;;;5.80;5.25;;;19.10;46.00;;;;;;5011911;28;20225;-69
2022/04/28 00:19:38;;;;;;;5.82;5.30;;;19.00;46.00;;;;;;4996815;28;20662;-69
2022/04/28 00:22:05;;;;;;;6.10;5.50;;;19.00;46.00;;;;;;5011906;28;20586;-69
2022/04/28 00:24:32;;;;;;;5.60;5.05;;;19.00;46.10;;;;;;5011655;28;20193;-69
2022/04/28 00:27:00;;;;;;;6.63;5.20;;;19.00;46.10;;;;;;4995307;28;20248;-69
2022/04/28 00:29:27;;;;;;;6.18;5.57;;;18.90;46.00;;;;;;5011703;28;20201;-69
2022/04/28 00:31:55;;;;;;;6.00;5.50;;;18.90;46.00;;;;;;4996627;28;20604;-69
2022/04/28 00:34:22;;;;;;;5.88;5.30;;;18.90;46.00;;;;;;4995199;28;20296;-69
2022/04/28 00:36:49;;;;;;;5.95;5.45;;;18.90;46.00;;;;;;4996558;28;20705;-69
2022/04/28 00:39:16;;;;;;;6.55;5.88;;;18.90;46.00;;;;;;5011519;28;20220;-69
2022/04/28 00:41:44;;;;;;;5.90;5.30;;;18.90;46.00;;;;;;5011764;28;20248;-69
2022/04/28 00:44:12;;;;;;;5.72;5.15;;;18.80;46.00;;;;;;5011641;28;20579;-68
2022/04/28 00:46:39;;;;;;;5.72;5.22;;;18.80;45.90;;;;;;5011361;28;20701;-70
2022/04/28 00:51:52;;;;;;;6.00;5.38;;;18.80;46.20;;;;;;4995225;28;20201;-69
2022/04/28 00:54:20;;;;;;;5.47;4.97;;;18.80;46.00;;;;;;4995078;28;20204;-69
2022/04/28 00:56:47;;;;;;;5.85;5.22;;;18.80;46.10;;;;;;4995643;28;20240;-70
2022/04/28 00:59:14;;;;;;;5.70;5.10;;;18.80;46.20;;;;;;4996249;28;20189;-69
2022/04/28 01:01:41;;;;;;;5.65;5.15;;;18.70;46.20;;;;;;4994900;28;20616;-70
2022/04/28 01:04:10;;;;;;;5.80;5.30;;;18.70;46.20;;;;;;5011148;28;20252;-69
2022/04/28 01:06:37;;;;;;;5.45;4.88;;;18.70;46.20;;;;;;4994925;28;20217;-69
2022/04/28 01:09:04;;;;;;;7.07;5.38;;;18.60;46.20;;;;;;5010161;28;20619;-69
2022/04/28 01:11:31;;;;;;;5.40;4.95;;;18.70;46.30;;;;;;5011468;28;20212;-69
2022/04/28 01:14:03;;;;;;;5.65;5.15;;;18.70;46.20;;;;;;4995454;28;20197;-68
2022/04/28 01:16:37;;;;;;;5.60;5.10;;;18.60;46.20;;;;;;4994696;28;20216;-69
2022/04/28 01:19:04;;;;;;;5.50;5.00;;;18.60;46.20;;;;;;5010866;28;20201;-69
2022/04/28 01:21:33;;;;;;;6.13;4.65;;;18.60;46.20;;;;;;4994522;28;20197;-69
2022/04/28 01:24:09;;;;;;;6.25;5.65;;;18.60;46.20;;;;;;5011796;28;20193;-69
2022/04/28 01:26:36;;;;;;;5.85;5.35;;;18.60;46.40;;;;;;4994769;28;20217;-69
2022/04/28 01:29:03;;;;;;;5.57;5.07;;;18.60;46.30;;;;;;5010770;28;20197;-70
2022/04/28 01:31:31;;;;;;;5.05;4.65;;;18.60;46.20;;;;;;4994109;28;20579;-70
2022/04/28 01:34:00;;;;;;;5.75;5.25;;;18.60;46.30;;;;;;5011194;28;20190;-69
2022/04/28 01:36:29;;;;;;;5.50;5.00;;;18.50;46.20;;;;;;5010934;28;20243;-69
2022/04/28 01:38:58;;;;;;;5.97;5.38;;;18.50;46.20;;;;;;4994253;28;20198;-69
2022/04/28 01:41:25;;;;;;;5.93;5.32;;;18.50;46.20;;;;;;5010659;28;20733;-69
2022/04/28 01:43:56;;;;;;;6.00;5.50;;;18.50;46.30;;;;;;5010329;28;20221;-69
2022/04/28 01:46:23;;;;;;;5.75;5.25;;;18.50;46.90;;;;;;5010331;28;20221;-70
2022/04/28 01:49:09;;;;;;;5.45;4.95;;;18.40;46.20;;;;;;5010321;28;20190;-69
2022/04/28 01:55:00;;;;;;;5.50;5.05;;;18.50;46.90;;;;;;4994925;28;20678;-69
2022/04/28 01:57:46;;;;;;;5.20;4.80;;;18.50;46.20;;;;;;4995381;28;20224;-70
2022/04/28 02:00:42;;;;;;;4.93;4.53;;;18.40;46.10;;;;;;4986543;28;20201;-70
2022/04/28 02:03:11;;;;;;;5.50;5.00;;;18.40;46.10;;;;;;5010218;28;20247;-69
2022/04/28 02:05:39;;;;;;;5.25;4.75;;;18.40;46.10;;;;;;4993825;28;20678;-71
2022/04/28 02:08:09;;;;;;;5.35;4.85;;;18.40;46.10;;;;;;4993698;28;20208;-69
2022/04/28 02:10:37;;;;;;;5.55;5.05;;;18.40;46.10;;;;;;5009941;28;20268;-69
2022/04/28 02:13:09;;;;;;;5.07;4.68;;;18.30;46.00;;;;;;5010563;28;20217;-69
2022/04/28 02:16:00;;;;;;;5.68;5.18;;;18.30;46.10;;;;;;4984674;28;20252;-69
2022/04/28 02:18:54;;;;;;;5.18;4.75;;;18.40;46.20;;;;;;5010147;28;20202;-69
2022/04/28 02:21:21;;;;;;;4.88;4.50;;;18.30;46.20;;;;;;5009635;28;20201;-69
2022/04/28 02:23:49;;;;;;;5.65;4.70;;;18.30;46.10;;;;;;4993499;28;20340;-69
2022/04/28 02:26:18;;;;;;;4.88;4.47;;;18.30;46.10;;;;;;5009721;28;20655;-69
2022/04/28 02:28:45;;;;;;;4.97;4.57;;;18.30;46.00;;;;;;5009647;28;20570;-69
2022/04/28 02:31:13;;;;;;;5.07;4.68;;;18.30;46.10;;;;;;5009651;28;20200;-69
2022/04/28 02:33:41;;;;;;;4.65;4.25;;;18.30;46.10;;;;;;4993674;28;20627;-69
2022/04/28 02:36:13;;;;;;;5.03;4.53;;;18.30;46.10;;;;;;5010460;28;20229;-69
2022/04/28 02:38:40;;;;;;;5.20;4.72;;;18.30;46.10;;;;;;5009705;28;20621;-69
2022/04/28 02:41:11;;;;;;;5.30;4.63;;;18.30;46.10;;;;;;5090544;23;20257;-70
2022/04/28 02:43:40;;;;;;;5.45;4.95;;;18.20;46.00;;;;;;5012909;28;20208;-71
2022/04/28 02:46:13;;;;;;;4.93;4.53;;;18.30;46.20;;;;;;5012948;28;20254;-70
2022/04/28 02:49:03;;;;;;;5.03;4.63;;;18.20;46.10;;;;;;4996417;28;20251;-71
2022/04/28 02:51:34;;;;;;;5.03;4.63;;;18.20;46.10;;;;;;5015016;28;20217;-72
2022/04/28 02:54:02;;;;;;;5.30;4.80;;;18.20;46.10;;;;;;5017460;28;20189;-72
2022/04/28 02:56:29;;;;;;;4.35;3.95;;;18.10;46.10;;;;;;5016762;28;20220;-71
2022/04/28 02:58:58;;;;;;;5.13;4.65;;;18.20;46.80;;;;;;5002381;28;20273;-72
2022/04/28 03:01:25;;;;;;;5.05;4.65;;;18.10;46.00;;;;;;4996694;28;20304;-71
2022/04/28 03:03:53;;;;;;;4.90;4.50;;;18.10;46.10;;;;;;4996658;28;20224;-72
2022/04/28 03:11:50;;;;;;;5.47;4.97;;;18.10;46.00;;;;;;4996029;28;20230;-72
2022/04/28 03:14:19;;;;;;;5.13;4.43;;;18.10;45.90;;;;;;4996191;28;20200;-72
2022/04/28 03:16:47;;;;;;;5.35;4.85;;;18.10;45.80;;;;;;5013719;28;20224;-72
2022/04/28 03:19:14;;;;;;;4.88;4.38;;;18.00;45.90;;;;;;4996188;28;20216;-71
2022/04/28 03:21:44;;;;;;;4.90;4.50;;;18.10;46.40;;;;;;5007727;28;20216;-72
2022/04/28 03:24:11;;;;;;;4.93;4.53;;;18.10;46.10;;;;;;5002169;28;20227;-71
2022/04/28 03:26:39;;;;;;;4.82;4.43;;;18.10;46.60;;;;;;4995976;28;20197;-71
2022/04/28 03:29:10;;;;;;;4.95;4.50;;;18.10;46.10;;;;;;4995798;28;20193;-72
2022/04/28 03:31:41;;;;;;;5.03;4.63;;;18.00;46.00;;;;;;4996302;28;20721;-72
2022/04/28 03:34:18;;;;;;;4.65;4.25;;;18.10;46.60;;;;;;4999933;28;20727;-71
2022/04/28 03:36:51;;;;;;;4.72;4.32;;;18.10;46.10;;;;;;4999630;28;20200;-72
2022/04/28 03:39:22;;;;;;;5.10;4.60;;;18.10;45.90;;;;;;4999904;28;20192;-71
2022/04/28 03:41:49;;;;;;;4.50;4.20;;;18.10;45.90;;;;;;5017604;28;20219;-72
2022/04/28 03:44:16;;;;;;;4.63;4.22;;;18.10;45.90;;;;;;4999335;28;20220;-71
2022/04/28 03:46:46;;;;;;;5.25;4.78;;;18.10;46.00;;;;;;4999351;28;20581;-71
2022/04/28 03:49:13;;;;;;;5.22;4.38;;;18.10;45.70;;;;;;5015759;28;20685;-71
2022/04/28 03:51:43;;;;;;;4.88;4.47;;;18.10;45.80;;;;;;4999429;28;20239;-71
2022/04/28 03:54:11;;;;;;;4.63;4.30;;;18.10;45.80;;;;;;4999505;28;20200;-72
2022/04/28 03:56:38;;;;;;;4.60;4.20;;;18.10;45.80;;;;;;4999712;28;20219;-71
2022/04/28 03:59:14;;;;;;;4.47;4.18;;;18.10;45.80;;;;;;5015559;28;20200;-71
2022/04/28 04:02:12;;;;;;;4.70;4.30;;;18.10;45.70;;;;;;5012358;28;20248;-71
2022/04/28 04:04:40;;;;;;;4.75;4.35;;;18.10;45.70;;;;;;4999338;28;20227;-71
2022/04/28 04:07:08;;;;;;;4.82;4.40;;;18.10;45.80;;;;;;4999100;28;20219;-72
2022/04/28 04:09:36;;;;;;;4.70;4.30;;;18.10;45.70;;;;;;5017100;28;20239;-71
2022/04/28 04:12:06;;;;;;;4.47;4.07;;;18.10;45.70;;;;;;4998971;28;20220;-71
2022/04/28 04:15:11;;;;;;;4.38;3.97;;;18.10;45.60;;;;;;4975522;28;20240;-71
2022/04/28 04:17:56;;;;;;;4.80;4.35;;;18.10;45.80;;;;;;4992406;28;20293;-71
2022/04/28 04:20:27;;;;;;;4.20;3.80;;;18.10;45.70;;;;;;4998519;28;20304;-71
2022/04/28 04:22:54;;;;;;;4.38;3.97;;;18.10;46.20;;;;;;5014973;28;20588;-73
2022/04/28 04:25:22;;;;;;;4.28;3.95;;;18.10;46.10;;;;;;4998757;28;20255;-71
2022/04/28 04:27:52;;;;;;;4.85;4.35;;;18.10;45.50;;;;;;5015057;28;20197;-72
2022/04/28 04:33:28;;;;;;;4.32;4.03;;;18.20;45.30;;;;;;4998715;28;20190;-71
2022/04/28 04:35:55;;;;;;;5.13;4.63;;;18.20;45.60;;;;;;4998680;28;20217;-71
2022/04/28 04:38:23;;;;;;;4.80;4.40;;;18.20;45.30;;;;;;4998496;28;20288;-71
2022/04/28 04:43:41;;;;;;;4.38;4.07;;;18.20;45.30;;;;;;5127305;23;20304;-71
2022/04/28 04:46:08;;;;;;;4.38;4.07;;;18.20;45.20;;;;;;5011571;28;20292;-72
2022/04/28 04:49:15;;;;;;;4.75;4.35;;;18.20;45.50;;;;;;4955575;29;20195;-71
2022/04/28 04:51:43;;;;;;;6.20;4.85;;;18.20;45.50;;;;;;4941979;29;20223;-72
2022/04/28 04:54:21;;;;;;;4.43;4.05;;;18.30;45.90;;;;;;4959124;28;20206;-71
2022/04/28 04:56:50;;;;;;;4.13;3.83;;;18.30;45.80;;;;;;4976686;28;20198;-72
2022/04/28 04:59:17;;;;;;;4.63;4.22;;;18.40;45.70;;;;;;4975526;28;20202;-71
2022/04/28 05:01:45;;;;;;;4.88;4.40;;;18.40;45.60;;;;;;4992021;28;20269;-71
2022/04/28 05:04:32;;;;;;;4.35;3.95;;;18.40;45.60;;;;;;4977668;28;20678;-72
2022/04/28 05:07:32;;;;;;;4.90;4.40;;;18.50;45.30;;;;;;4991850;28;20202;-72
2022/04/28 05:09:59;;;;;;;4.57;4.22;;;18.60;45.30;;;;;;4991503;28;20297;-72
2022/04/28 05:12:26;;;;;;;4.38;3.97;;;18.70;45.60;;;;;;4975346;28;20558;-72
2022/04/28 05:14:57;;;;;;;4.32;3.92;;;18.80;45.40;;;;;;4991422;28;20574;-71
2022/04/28 05:17:30;;;;;;;6.32;4.80;;;19.00;45.00;;;;;;5156916;23;20252;-71
2022/04/28 05:20:09;;;;;;;4.55;4.15;;;19.20;45.10;;;;;;5011498;28;20197;-72
2022/04/28 05:22:54;;;;;;;4.43;4.00;;;19.40;45.00;;;;;;5015457;28;20192;-72
2022/04/28 05:25:59;;;;;;;4.18;3.78;;;19.60;44.50;;;;;;5015032;28;20192;-72
2022/04/28 05:28:53;;;;;;;4.30;3.90;;;19.80;43.90;;;;;;5006893;28;20292;-72
2022/04/28 05:31:34;;;;;;;4.68;4.28;;;20.00;43.80;;;;;;5030339;28;20212;-72
2022/04/28 05:34:07;;;;;;;4.10;3.80;;;20.20;43.50;;;;;;5031013;28;20200;-72
2022/04/28 05:36:43;;;;;;;5.35;4.45;;;20.30;43.10;;;;;;5030230;28;20225;-72
2022/04/28 05:39:09;;;;;;;4.68;4.28;;;20.40;42.90;;;;;;5013690;28;20616;-72
2022/04/28 05:41:38;;;;;;;4.47;4.07;;;20.60;42.70;;;;;;5030026;28;20212;-72
2022/04/28 05:46:49;;;;;;;4.88;4.47;;;20.80;42.30;;;;;;5014744;28;20664;-72
2022/04/28 05:52:01;;;;;;;5.07;4.60;;;21.00;42.00;;;;;;5307530;23;20232;-71
2022/04/28 05:54:28;;;;;;;5.63;5.13;;;21.20;41.70;;;;;;5009721;28;20209;-71
2022/04/28 05:56:55;;;;;;;4.88;4.40;;;21.30;41.60;;;;;;4993738;28;20200;-71
2022/04/28 05:59:22;;;;;;;5.13;4.60;;;21.30;41.20;;;;;;4993671;28;20669;-71
2022/04/28 06:02:08;;;;;;;7.57;4.68;;;21.40;41.20;;;;;;5012457;28;20223;-71
2022/04/28 06:04:36;;;;;;;5.32;4.82;;;21.60;41.70;;;;;;5013078;28;20249;-71
2022/04/28 06:07:05;;;;;;;4.93;4.53;;;21.60;40.80;;;;;;5029906;28;20204;-71
2022/04/28 06:09:37;;;;;;;4.78;4.38;;;21.80;40.80;;;;;;5029644;28;20231;-71
2022/04/28 06:12:05;;;;;;;5.85;4.63;;;21.90;40.60;;;;;;5030266;28;20221;-71
2022/04/28 06:14:54;;;;;;;5.43;4.93;;;21.90;40.50;;;;;;5014138;28;20193;-70
2022/04/28 06:17:44;;;;;;;5.95;5.38;;;22.10;40.40;;;;;;5029445;28;20201;-71
2022/04/28 06:20:12;;;;;;;5.30;4.80;;;22.20;40.20;;;;;;5030238;28;20279;-71
2022/04/28 06:22:59;;;;;;;5.93;5.43;;;22.30;40.00;;;;;;5014250;28;20260;-71
2022/04/28 06:25:30;;;;;;;5.53;4.90;;;22.40;39.90;;;;;;5030206;28;20204;-71
2022/04/28 06:27:58;;;;;;;5.93;5.43;;;22.50;39.80;;;;;;5029353;28;20192;-71
2022/04/28 06:30:26;;;;;;;5.43;4.93;;;22.50;39.50;;;;;;5012792;28;20307;-71
2022/04/28 06:33:00;;;;;;;5.63;5.13;;;22.60;39.40;;;;;;5029667;28;20227;-71
2022/04/28 06:35:44;;;;;;;6.63;5.07;;;22.70;39.20;;;;;;5029539;28;20574;-71
2022/04/28 06:38:14;;;;;;;5.20;4.70;;;22.80;39.00;;;;;;5012945;28;20719;-71
2022/04/28 06:40:41;;;;;;;6.47;4.43;;;22.90;39.00;;;;;;5029039;28;20220;-71
2022/04/28 06:43:09;;;;;;;4.35;3.95;;;23.00;38.80;;;;;;5012559;28;20216;-71
2022/04/28 06:49:16;;;;;;;4.85;4.40;;;23.20;38.50;;;;;;4992094;28;20701;-71
2022/04/28 06:52:15;;;;;;;4.63;4.22;;;23.30;38.30;;;;;;5013629;28;20255;-71
2022/04/28 06:55:03;;;;;;;4.20;3.90;;;23.40;38.10;;;;;;5014150;28;20206;-71
2022/04/28 06:57:33;;;;;;;4.30;3.88;;;23.50;37.90;;;;;;5029239;28;20292;-71
2022/04/28 07:00:11;;;;;;;4.30;3.97;;;23.50;37.70;;;;;;5029119;28;20199;-71
2022/04/28 07:02:45;;;;;;;4.57;4.18;;;23.60;37.50;;;;;;5012363;28;20727;-71
2022/04/28 07:05:12;;;;;;;4.00;3.50;;;23.70;37.50;;;;;;5028809;28;20209;-71
2022/04/28 07:07:39;;;;;;;4.45;3.63;;;23.80;37.40;;;;;;5014673;28;20207;-72
2022/04/28 07:10:09;;;;;;;3.60;3.30;;;23.90;37.30;;;;;;5016373;28;20200;-71
2022/04/28 07:12:43;;;;;;;3.72;3.42;;;24.00;37.20;;;;;;5016752;28;20192;-71
2022/04/28 07:15:43;;;;;;;4.05;3.65;;;24.00;36.90;;;;;;4995249;28;20201;-71
2022/04/28 07:18:22;;;;;;;3.90;3.60;;;24.10;36.80;;;;;;5018162;28;20638;-71
2022/04/28 07:20:51;;;;;;;4.13;3.70;;;24.20;36.70;;;;;;5032778;28;20221;-71
2022/04/28 07:23:18;;;;;;;3.58;3.28;;;24.30;36.50;;;;;;5032956;28;20223;-71
2022/04/28 07:25:46;;;;;;;3.45;3.15;;;24.30;36.40;;;;;;5032599;28;20242;-71
2022/04/28 07:28:14;;;;;;;3.70;3.40;;;24.40;36.30;;;;;;5016049;28;20203;-71
2022/04/28 07:31:02;;;;;;;4.20;3.80;;;24.50;36.20;;;;;;5006661;28;20224;-71
2022/04/28 07:33:47;;;;;;;3.58;3.28;;;24.50;36.00;;;;;;5018337;28;20591;-71
2022/04/28 07:36:33;;;;;;;4.85;3.40;;;24.60;35.90;;;;;;5018496;28;20193;-71
2022/04/28 07:39:20;;;;;;;3.47;3.15;;;24.70;35.80;;;;;;5017114;28;20181;-71
2022/04/28 07:42:09;;;;;;;3.38;3.08;;;24.70;35.70;;;;;;5016801;28;20271;-71
2022/04/28 07:44:42;;;;;;;3.50;3.20;;;24.80;35.60;;;;;;5017326;28;20196;-71
2022/04/28 07:47:10;;;;;;;3.78;3.47;;;24.80;35.50;;;;;;5032399;28;20555;-71
2022/04/28 07:49:42;;;;;;;3.65;3.35;;;24.90;35.50;;;;;;5032938;28;20212;-71
2022/04/28 07:52:11;;;;;;;4.40;3.50;;;24.90;35.30;;;;;;5015581;28;20221;-71
2022/04/28 07:54:39;;;;;;;3.67;3.38;;;25.00;35.30;;;;;;5032335;28;20192;-71
2022/04/28 07:57:06;;;;;;;3.38;3.17;;;25.00;35.10;;;;;;5032405;28;20666;-72
2022/04/28 07:59:35;;;;;;;3.67;3.38;;;25.10;35.10;;;;;;5015587;28;20200;-71
2022/04/28 08:02:14;;;;;;;3.20;3.00;;;25.10;35.00;;;;;;5033151;28;20255;-71
2022/04/28 08:04:45;;;;;;;3.47;3.17;;;25.20;34.90;;;;;;5032113;28;20227;-71
2022/04/28 08:07:12;;;;;;;3.60;3.30;;;25.30;34.80;;;;;;5032091;28;20220;-72
2022/04/28 08:09:42;;;;;;;3.45;3.25;;;25.30;34.70;;;;;;5031963;28;20557;-71
2022/04/28 08:12:13;;;;;;;3.60;3.30;;;25.40;34.60;;;;;;5031929;28;20716;-71
2022/04/28 08:14:42;;;;;;;3.40;3.20;;;25.40;34.40;;;;;;5015404;28;20216;-71
2022/04/28 08:17:09;;;;;;;3.53;3.22;;;25.50;34.50;;;;;;5032172;28;20715;-71
2022/04/28 08:19:36;;;;;;;3.30;2.97;;;25.50;34.30;;;;;;5031713;28;20564;-71
2022/04/28 08:22:07;;;;;;;3.85;2.97;;;25.50;34.20;;;;;;5031574;28;20217;-71
2022/04/28 08:24:36;;;;;;;3.63;3.35;;;25.60;34.10;;;;;;5031591;28;20224;-71
2022/04/28 08:27:04;;;;;;;3.85;3.10;;;25.60;34.00;;;;;;5031752;28;20292;-71
2022/04/28 08:29:31;;;;;;;3.72;3.42;;;25.70;34.00;;;;;;5015128;28;20316;-71
2022/04/28 08:32:08;;;;;;;3.13;2.92;;;25.70;33.90;;;;;;5031701;28;20298;-71
2022/04/28 08:34:36;;;;;;;3.45;3.25;;;25.80;33.80;;;;;;5014966;28;20201;-71
2022/04/28 08:37:04;;;;;;;3.58;3.28;;;25.80;33.80;;;;;;5016346;28;20220;-71
2022/04/28 08:39:31;;;;;;;4.03;3.30;;;25.90;33.70;;;;;;5014828;28;20197;-71
2022/04/28 08:42:00;;;;;;;3.30;3.00;;;25.90;33.70;;;;;;5014781;28;20220;-71
2022/04/28 08:45:00;;;;;;;3.50;3.20;;;25.90;33.60;;;;;;5004335;28;20608;-72
2022/04/28 08:47:37;;;;;;;3.50;3.20;;;26.00;33.50;;;;;;5016263;28;20209;-71
2022/04/28 08:50:31;;;;;;;3.60;3.30;;;26.00;33.40;;;;;;4992632;28;20663;-71
2022/04/28 08:53:09;;;;;;;3.70;3.40;;;26.00;33.40;;;;;;5014772;28;20292;-71
2022/04/28 08:55:40;;;;;;;3.50;3.20;;;26.00;33.30;;;;;;5031449;28;20191;-71
2022/04/28 08:58:07;;;;;;;3.40;3.10;;;26.10;33.30;;;;;;5014532;28;20203;-71
2022/04/28 09:00:40;;;;;;;3.22;3.00;;;26.10;33.20;;;;;;5014423;28;20247;-71
2022/04/28 09:03:26;;;;;;;3.35;3.05;;;26.10;33.20;;;;;;5016062;28;20188;-71
2022/04/28 09:06:19;;;;;;;3.40;3.10;;;26.20;33.20;;;;;;5015873;28;20212;-74
2022/04/28 09:09:18;;;;;;;3.58;3.28;;;26.20;33.10;;;;;;5014228;28;20542;-73
2022/04/28 09:12:21;;;;;;;2.90;2.70;;;26.20;33.00;;;;;;5015427;28;20208;-74
2022/04/28 09:15:19;;;;;;;3.10;2.85;;;26.20;33.00;;;;;;5032278;28;20199;-74
2022/04/28 09:17:55;;;;;;;3.15;2.92;;;26.20;33.10;;;;;;5014890;28;20250;-74
2022/04/28 09:20:24;;;;;;;3.05;2.80;;;26.10;33.30;;;;;;5033474;28;20216;-74
2022/04/28 09:22:55;;;;;;;3.38;3.17;;;25.90;33.50;;;;;;5035667;28;20193;-74
2022/04/28 09:25:30;;;;;;;3.30;3.00;;;25.80;33.80;;;;;;5032640;28;20217;-74
2022/04/28 09:27:57;;;;;;;4.13;3.28;;;25.60;34.00;;;;;;5032807;28;20289;-74
2022/04/28 09:30:26;;;;;;;3.35;3.00;;;25.50;34.30;;;;;;5015198;28;20224;-74
2022/04/28 09:33:10;;;;;;;4.15;3.20;;;25.30;34.50;;;;;;5015072;28;20207;-74
2022/04/28 09:35:55;;;;;;;3.22;3.03;;;25.30;34.50;;;;;;5032466;28;20188;-74
2022/04/28 09:38:34;;;;;;;3.25;2.97;;;25.20;34.70;;;;;;5031115;28;20200;-74
2022/04/28 09:43:47;;;;;;;3.03;2.72;;;25.20;34.70;;;;;;5014158;28;20235;-74
2022/04/28 09:46:22;;;;;;;3.08;2.88;;;25.20;34.80;;;;;;5014826;28;20307;-73
2022/04/28 09:48:50;;;;;;;3.08;2.88;;;25.20;34.90;;;;;;5031518;28;20196;-73
2022/04/28 09:51:32;;;;;;;3.05;2.80;;;25.20;35.40;;;;;;5031963;28;20636;-73
2022/04/28 09:54:26;;;;;;;3.28;2.70;;;25.30;34.70;;;;;;5013980;28;20204;-73
2022/04/28 09:56:58;;;;;;;3.00;2.80;;;25.40;34.60;;;;;;5030135;28;20243;-74
2022/04/28 09:59:28;;;;;;;3.05;2.67;;;25.40;34.50;;;;;;5030092;28;20216;-74
2022/04/28 10:01:56;;;;;;;3.15;2.95;;;25.50;34.40;;;;;;5029910;28;20217;-74
2022/04/28 10:04:24;;;;;;;3.15;2.85;;;25.50;34.40;;;;;;5029837;28;20205;-74
2022/04/28 10:07:01;;;;;;;2.75;2.60;;;25.50;34.30;;;;;;5014667;28;20276;-74
2022/04/28 10:09:33;;;;;;;3.05;2.78;;;25.60;34.30;;;;;;5029881;28;20279;-74
2022/04/28 10:12:18;;;;;;;2.83;2.63;;;25.60;34.30;;;;;;5029653;28;20212;-74
2022/04/28 10:14:57;;;;;;;2.80;2.60;;;25.60;34.30;;;;;;5014056;28;20192;-73
2022/04/28 10:17:28;;;;;;;2.92;2.72;;;25.60;34.30;;;;;;5029765;28;20697;-73
2022/04/28 10:19:57;;;;;;;2.92;2.65;;;25.60;34.30;;;;;;5013269;28;20218;-74
2022/04/28 10:22:43;;;;;;;2.85;2.65;;;25.60;34.50;;;;;;5012998;28;20665;-74
2022/04/28 10:34:11;;;;;;;2.90;2.70;;;25.40;34.80;;;;;;5012818;28;20181;-73
2022/04/28 10:36:51;;;;;;;3.08;2.78;;;25.50;34.80;;;;;;5014310;28;20256;-74
2022/04/28 10:39:33;;;;;;;3.03;2.72;;;25.50;34.80;;;;;;5012790;28;20569;-74
2022/04/28 10:42:00;;;;;;;2.60;2.47;;;25.60;34.70;;;;;;5012880;28;20701;-74
2022/04/28 10:44:30;;;;;;;2.70;2.50;;;25.60;34.80;;;;;;5014120;28;20200;-74
2022/04/28 10:46:59;;;;;;;2.72;2.63;;;25.60;34.40;;;;;;5029127;28;20657;-74
2022/04/28 10:49:26;;;;;;;2.92;2.72;;;25.60;34.40;;;;;;5012765;28;20227;-74
2022/04/28 10:51:57;;;;;;;2.80;2.60;;;25.60;34.30;;;;;;5029256;28;20232;-74
2022/04/28 10:54:29;;;;;;;2.97;2.78;;;25.60;34.30;;;;;;5012593;28;20713;-74
2022/04/28 10:56:58;;;;;;;2.70;2.50;;;25.60;34.30;;;;;;5028958;28;20291;-74
2022/04/28 10:59:49;;;;;;;2.80;2.60;;;25.60;34.30;;;;;;5013840;28;20558;-74
2022/04/28 11:02:48;;;;;;;3.00;2.80;;;25.50;34.30;;;;;;4998059;28;20221;-74
2022/04/28 11:05:44;;;;;;;2.70;2.55;;;25.40;34.60;;;;;;5012435;28;20212;-74
2022/04/28 11:08:29;;;;;;;2.60;2.40;;;25.40;34.70;;;;;;4999701;28;20201;-74
2022/04/28 11:11:09;;;;;;;2.70;2.50;;;25.30;34.90;;;;;;5012410;28;20217;-74
2022/04/28 11:13:37;;;;;;;2.50;2.30;;;25.20;35.00;;;;;;5012663;28;20205;-74
2022/04/28 11:16:05;;;;;;;3.08;2.88;;;25.20;35.00;;;;;;5013900;28;20189;-74
2022/04/28 11:18:33;;;;;;;2.70;2.50;;;25.20;35.00;;;;;;5012381;28;20208;-74
2022/04/28 11:21:01;;;;;;;2.60;2.40;;;25.20;35.00;;;;;;5012104;28;20224;-74
2022/04/28 11:23:33;;;;;;;2.67;2.47;;;25.10;35.10;;;;;;5013514;28;20212;-74
2022/04/28 11:26:02;;;;;;;2.65;2.45;;;25.10;35.10;;;;;;5013580;28;20282;-74
2022/04/28 11:28:31;;;;;;;3.00;2.80;;;25.10;35.20;;;;;;5012194;28;20309;-74
2022/04/28 11:30:58;;;;;;;2.95;2.65;;;25.10;35.20;;;;;;5013316;28;20224;-74
2022/04/28 11:33:25;;;;;;;2.90;2.70;;;25.10;35.30;;;;;;5012123;28;20576;-74
2022/04/28 11:35:54;;;;;;;2.78;2.58;;;25.10;35.30;;;;;;5028678;28;20197;-74
2022/04/28 11:38:27;;;;;;;2.70;2.50;;;25.10;35.40;;;;;;5028846;28;20204;-74
2022/04/28 11:41:03;;;;;;;2.85;2.65;;;25.00;35.40;;;;;;5028520;28;20217;-74
2022/04/28 11:43:32;;;;;;;2.63;2.42;;;25.00;35.40;;;;;;5013268;28;20727;-74
2022/04/28 11:46:00;;;;;;;2.53;2.33;;;25.00;35.50;;;;;;5011968;28;20716;-74
2022/04/28 11:48:30;;;;;;;2.85;2.65;;;25.00;35.50;;;;;;5011992;28;20707;-74
2022/04/28 11:51:02;;;;;;;2.80;2.60;;;25.00;35.60;;;;;;5028630;28;20235;-74
2022/04/28 11:53:40;;;;;;;2.78;2.58;;;24.90;35.60;;;;;;5015427;28;20181;-74
2022/04/28 11:56:18;;;;;;;2.90;2.70;;;24.90;35.60;;;;;;5017167;28;20173;-74
2022/04/28 11:58:51;;;;;;;2.17;2.08;;;24.90;35.70;;;;;;5015710;28;20200;-74
2022/04/28 12:01:19;;;;;;;2.72;2.53;;;24.90;35.70;;;;;;5016889;28;20217;-71
2022/04/28 12:03:51;;;;;;;2.42;2.22;;;24.90;35.90;;;;;;5015872;28;20197;-73
2022/04/28 12:06:18;;;;;;;2.63;2.42;;;24.90;35.90;;;;;;5016894;28;20626;-71
2022/04/28 12:08:53;;;;;;;2.47;2.33;;;24.80;35.80;;;;;;5015351;28;20677;-71
2022/04/28 12:14:25;;;;;;;2.42;2.25;;;24.70;35.90;;;;;;5015424;28;20242;-71
2022/04/28 12:19:50;;;;;;;2.63;2.42;;;24.70;36.00;;;;;;5015415;28;20213;-71
2022/04/28 12:22:28;;;;;;;2.67;2.47;;;24.70;36.10;;;;;;5016690;28;20226;-71
2022/04/28 12:24:55;;;;;;;2.85;2.65;;;24.70;36.20;;;;;;5016536;28;20177;-71
2022/04/28 12:27:22;;;;;;;2.90;2.60;;;24.70;36.20;;;;;;5032053;28;20201;-71
2022/04/28 12:29:55;;;;;;;2.33;2.22;;;24.70;36.20;;;;;;5014995;28;20205;-71
2022/04/28 12:32:23;;;;;;;2.58;2.42;;;24.70;36.30;;;;;;5014848;28;20655;-71
2022/04/28 12:35:01;;;;;;;2.45;2.35;;;24.70;36.40;;;;;;5014944;28;20575;-71
2022/04/28 12:37:29;;;;;;;2.80;2.60;;;24.70;36.40;;;;;;5014833;28;20255;-74
2022/04/28 12:39:58;;;;;;;2.38;2.28;;;24.60;36.40;;;;;;5031402;28;20555;-74
2022/04/28 12:42:26;;;;;;;2.10;2.00;;;24.60;36.40;;;;;;5015989;28;20263;-74
2022/04/28 12:44:54;;;;;;;2.40;2.20;;;24.60;36.50;;;;;;5014804;28;20303;-74
2022/04/28 12:47:21;;;;;;;2.72;2.53;;;24.60;36.50;;;;;;5016144;28;20208;-74
2022/04/28 12:49:49;;;;;;;2.45;2.25;;;24.60;36.60;;;;;;5031083;28;20296;-74
2022/04/28 12:52:27;;;;;;;2.50;2.30;;;24.50;36.50;;;;;;5031288;28;20229;-74
2022/04/28 12:55:01;;;;;;;2.40;2.20;;;24.50;36.60;;;;;;5037309;28;20189;-74
2022/04/28 12:57:30;;;;;;;2.35;2.25;;;24.50;36.70;;;;;;5020050;28;20196;-74
2022/04/28 13:00:00;;;;;;;2.35;2.25;;;24.50;36.80;;;;;;5015981;28;20197;-74
2022/04/28 13:02:29;;;;;;;2.70;2.50;;;24.50;36.70;;;;;;5014994;28;20332;-74
2022/04/28 13:04:56;;;;;;;2.30;2.20;;;24.40;36.60;;;;;;5030103;28;20712;-74
2022/04/28 13:07:23;;;;;;;2.10;2.00;;;24.50;36.70;;;;;;5015648;28;20216;-74
2022/04/28 13:09:50;;;;;;;2.40;2.20;;;24.40;36.80;;;;;;5030680;28;20568;-74
2022/04/28 13:12:17;;;;;;;2.60;2.40;;;24.40;36.90;;;;;;5030826;28;20220;-74
2022/04/28 13:14:44;;;;;;;2.70;2.38;;;24.40;36.90;;;;;;5014165;28;20228;-74
2022/04/28 13:17:12;;;;;;;2.45;2.30;;;24.30;37.00;;;;;;5031108;28;20299;-74
2022/04/28 13:19:40;;;;;;;2.50;2.30;;;24.30;37.00;;;;;;5031774;28;20718;-74
2022/04/28 13:22:07;;;;;;;2.55;2.35;;;24.40;37.00;;;;;;5015271;28;20212;-74
2022/04/28 13:24:34;;;;;;;2.42;2.30;;;24.30;37.00;;;;;;5030599;28;20199;-74
2022/04/28 13:27:01;;;;;;;2.55;2.35;;;24.30;37.10;;;;;;5015340;28;20337;-74
2022/04/28 13:29:28;;;;;;;2.50;2.30;;;24.30;37.10;;;;;;5030357;28;20197;-74
2022/04/28 13:31:55;;;;;;;2.40;2.28;;;24.30;37.10;;;;;;5030268;28;20227;-74
2022/04/28 13:34:23;;;;;;;2.25;2.10;;;24.30;37.20;;;;;;5013752;28;20200;-74
2022/04/28 13:36:51;;;;;;;2.63;2.42;;;24.30;37.20;;;;;;5030372;28;20231;-74
2022/04/28 13:39:18;;;;;;;2.30;2.20;;;24.20;36.90;;;;;;5013843;28;20200;-74
2022/04/28 13:41:46;;;;;;;2.50;2.25;;;24.20;37.00;;;;;;5030216;28;20315;-74
2022/04/28 13:44:14;;;;;;;2.60;2.40;;;24.20;36.90;;;;;;5030210;28;20196;-75
2022/04/28 13:46:41;;;;;;;2.53;2.35;;;24.20;37.30;;;;;;5015127;28;20212;-74
2022/04/28 13:49:08;;;;;;;2.50;2.30;;;24.20;37.20;;;;;;5014971;28;20247;-74
2022/04/28 13:51:37;;;;;;;2.33;2.20;;;24.10;36.80;;;;;;5030253;28;20224;-74
2022/04/28 13:54:03;;;;;;;2.47;2.30;;;24.10;36.80;;;;;;5030011;28;20689;-74
2022/04/28 13:56:31;;;;;;;2.47;2.30;;;24.00;37.00;;;;;;5014720;28;20601;-74
2022/04/28 13:58:58;;;;;;;2.53;2.33;;;24.00;36.80;;;;;;5013481;28;20628;-74
2022/04/28 14:01:25;;;;;;;2.60;2.40;;;24.00;36.80;;;;;;5014532;28;20213;-74